Floda, Sweden

3:28 PM CEST on August 21, 2014 (GMT +0200)
Katrineholm | Change Station
CLOSE
Current Station
Personal Weather Station
Location: Valla, SoDERMANLAND
Elevation: 120 ft
Nearby Weather Stations

Elev 120 ft 59.02 °N, 16.37 °E | Updated 7 minutes ago

Scattered Clouds
Scattered Clouds
65.8 °F
Feels Like 65.8 °F
N
0.0
Wind Variable Wind from North
Gusts 0.0 mph

Today
High -- | Low -- °F
--% Chance of Precip.
Yesterday
High -- | Low -- °F
Precip. -- in
5:26 AM 8:27 PM
Waning Crescent, 14% visible
Pressure 29.65 in
Visibility 6.2 miles
Clouds Scattered Clouds 4900 ft
Dew Point 49 °F
Humidity 56%
Rainfall 0.01 in
Snow Depth Not available.
UV 4 out of 12
Pollen Not available.
Air Quality Not available.
Flu Activity Not available.
METAR ESKN 211320Z 23016KT 9999 SCT049CB 19/08 Q1004

More Conditions Fewer Conditions

Pressure 29.65 in
Visibility 6.2 miles
Clouds Scattered Clouds 4900 ft
Dew Point 49 °F
Humidity 56%
Rainfall 0.01 in
Snow Depth Not available.
UV 4 out of 12
Pollen Not available.
Air Quality Not available.
Flu Activity Not available.
METAR ESKN 211320Z 23016KT 9999 SCT049CB 19/08 Q1004

More Conditions Fewer Conditions

10-Day Weather Forecast

Almanac

Astronomy

Aug. 21, 2014 Rise Set
Actual Time 5:26 AM CEST 8:27 PM CEST
Civil Twilight 4:39 AM CEST 9:13 PM CEST
Nautical Twilight 3:34 AM CEST 10:17 PM CEST
Astronomical Twilight 1:48 AM CEST 11:57 PM CEST
Moon 1:15 AM CEST 6:06 PM CEST
Length of Visible Light 16h 34m
Length of Day
15h 01m
Tomorrow will be 5m 4s shorter.
Waning Crescent, 14% of the Moon is Illuminated
Today
Waning Crescent
Aug 25
New
Sep 2
First Quarter
Sep 8
Full
Sep 15
Last Quarter

Yesterday's Extremes

Country Highs Country Lows

Community

WunderPhotos

Upload Photos

1,745,918 photos uploaded!

WunderBlogs® & News

By Dr. Jeff Masters
Director of Meteorology, Weather Underground
By Kari Strenfel
Meteorologist, Weather Underground
By Christopher C. Burt
Weather Historian, Weather Underground
August 21, 2014
August 21, 2014
August 21, 2014

Nearby

Snow Depth

Not available.

Earthquake Activity

City Distance Mag. Time & Date
No recent earthquake activity has been reported nearby.
Minimum magnitude displayed is 2.5.

Coastal Water Temperatures

Place Temperature
No Stations Reporting

Nearby Weather Stations